Portada
METAR-TAF:

METAR-TAF

Aeroports :

Fuzhou, Xina

latitud: 26-05N, longitud: 119-17E, altitud: 85 m

Observació

L'informe es va fer fa 59 minuts, a les 22:00 UTC
Vent 14 kt del Nord/Nord-Est
Temperatura 15°C
Humitat 72%
Pressió 1025 hPa
Visibilitat 10 km o més
Cel cobert a una alçada de 2100 ft

METAR: ZSFZ 282200Z 03007MPS 9999 OVC021 15/10 Q1025 NOSIG

Hora: 06:59 (22:59 UTC)

Pronòstic

L'informe es va fer fa 7 hores i 56 minuts, a les 15:03 UTC
Pronòstic vàlid del 28 a les 18 UTC al 29 a les 18 UTC
Vent 16 kt del Nord-Est
Visibilitat: 8000 m
Cel ennuvolat a una alçada de 2000 ft

TAF: ZSFZ 281503Z 2818/2918 04008MPS 8000 BKN020 TX18/2906Z TN14/2821Z

Observacions i pronòstics meteorològics de més de 4000 aeroports (METAR i TAF).

Les estacions disponibles són els punts grocs i vermells al mapa.

Posi el ratolí al punt desitjat per veure el nom de l'estació.

Feu clic per veure les observacions i els pronòstics meteorològics.

Per canviar el mapa: feu clic els botons verds amb una creu de color negre per apropar; al botó verd amb un guió per allunyar la imatge; o en les fletxes verdes per a mapes adjacents.


METAR-TAF: